sensor_id;sensor_type;location;lat;lon;timestamp;temperature;humidity
14873;DHT22;7528;48.576;19.122;2022-12-07T00:00:14;7.50;77.60
14873;DHT22;7528;48.576;19.122;2022-12-07T00:05:17;7.50;78.10
14873;DHT22;7528;48.576;19.122;2022-12-07T00:10:19;7.50;78.20
14873;DHT22;7528;48.576;19.122;2022-12-07T00:15:24;7.60;78.10
14873;DHT22;7528;48.576;19.122;2022-12-07T00:20:26;7.50;78.00
14873;DHT22;7528;48.576;19.122;2022-12-07T00:25:30;7.60;78.20
14873;DHT22;7528;48.576;19.122;2022-12-07T00:30:35;7.60;78.40
14873;DHT22;7528;48.576;19.122;2022-12-07T00:35:37;7.60;78.30
14873;DHT22;7528;48.576;19.122;2022-12-07T00:40:40;7.50;78.70
14873;DHT22;7528;48.576;19.122;2022-12-07T00:45:45;7.50;79.20
14873;DHT22;7528;48.576;19.122;2022-12-07T00:50:47;7.50;79.50
14873;DHT22;7528;48.576;19.122;2022-12-07T00:55:50;7.60;79.40
14873;DHT22;7528;48.576;19.122;2022-12-07T01:00:59;7.50;79.40
14873;DHT22;7528;48.576;19.122;2022-12-07T01:06:03;7.60;78.00
14873;DHT22;7528;48.576;19.122;2022-12-07T01:11:09;7.40;77.60
14873;DHT22;7528;48.576;19.122;2022-12-07T01:16:15;7.50;77.90
14873;DHT22;7528;48.576;19.122;2022-12-07T01:21:21;7.50;78.30
14873;DHT22;7528;48.576;19.122;2022-12-07T01:26:25;7.50;78.20
14873;DHT22;7528;48.576;19.122;2022-12-07T01:31:29;7.60;78.30
14873;DHT22;7528;48.576;19.122;2022-12-07T01:36:34;7.50;78.70
14873;DHT22;7528;48.576;19.122;2022-12-07T01:41:39;7.60;78.00
14873;DHT22;7528;48.576;19.122;2022-12-07T01:46:47;7.50;77.70
14873;DHT22;7528;48.576;19.122;2022-12-07T01:51:53;7.50;76.40
14873;DHT22;7528;48.576;19.122;2022-12-07T01:56:57;7.60;76.90
14873;DHT22;7528;48.576;19.122;2022-12-07T02:02:04;7.60;77.20
14873;DHT22;7528;48.576;19.122;2022-12-07T02:07:09;7.70;77.10
14873;DHT22;7528;48.576;19.122;2022-12-07T02:12:12;7.60;77.10
14873;DHT22;7528;48.576;19.122;2022-12-07T02:17:22;7.60;77.60
14873;DHT22;7528;48.576;19.122;2022-12-07T02:23:00;7.60;77.90
14873;DHT22;7528;48.576;19.122;2022-12-07T02:28:09;7.60;77.60
14873;DHT22;7528;48.576;19.122;2022-12-07T02:33:18;7.60;76.60
14873;DHT22;7528;48.576;19.122;2022-12-07T02:38:26;7.60;77.10
14873;DHT22;7528;48.576;19.122;2022-12-07T02:43:35;7.60;77.10
14873;DHT22;7528;48.576;19.122;2022-12-07T02:48:43;7.60;77.50
14873;DHT22;7528;48.576;19.122;2022-12-07T02:53:46;7.60;77.20
14873;DHT22;7528;48.576;19.122;2022-12-07T02:58:59;7.60;76.80
14873;DHT22;7528;48.576;19.122;2022-12-07T03:04:14;7.60;76.10
14873;DHT22;7528;48.576;19.122;2022-12-07T03:09:28;7.50;74.90
14873;DHT22;7528;48.576;19.122;2022-12-07T03:14:37;7.40;76.40
14873;DHT22;7528;48.576;19.122;2022-12-07T03:19:45;7.50;77.30
14873;DHT22;7528;48.576;19.122;2022-12-07T03:24:51;7.60;76.90
14873;DHT22;7528;48.576;19.122;2022-12-07T03:30:00;7.70;76.80
14873;DHT22;7528;48.576;19.122;2022-12-07T03:35:09;7.70;76.90
14873;DHT22;7528;48.576;19.122;2022-12-07T03:40:18;7.70;76.60
14873;DHT22;7528;48.576;19.122;2022-12-07T03:45:29;7.80;77.50
14873;DHT22;7528;48.576;19.122;2022-12-07T03:50:43;7.80;77.00
14873;DHT22;7528;48.576;19.122;2022-12-07T03:55:47;7.80;77.30
14873;DHT22;7528;48.576;19.122;2022-12-07T04:00:51;7.80;77.70
14873;DHT22;7528;48.576;19.122;2022-12-07T04:05:55;7.80;77.90
14873;DHT22;7528;48.576;19.122;2022-12-07T04:10:59;7.80;77.50
14873;DHT22;7528;48.576;19.122;2022-12-07T04:16:02;7.80;77.80
14873;DHT22;7528;48.576;19.122;2022-12-07T04:21:06;7.80;77.70
14873;DHT22;7528;48.576;19.122;2022-12-07T04:26:09;7.80;78.10
14873;DHT22;7528;48.576;19.122;2022-12-07T04:31:12;7.80;78.10
14873;DHT22;7528;48.576;19.122;2022-12-07T04:36:16;7.80;77.30
14873;DHT22;7528;48.576;19.122;2022-12-07T04:41:21;7.80;77.30
14873;DHT22;7528;48.576;19.122;2022-12-07T04:46:29;7.80;78.10
14873;DHT22;7528;48.576;19.122;2022-12-07T04:51:34;7.80;78.10
14873;DHT22;7528;48.576;19.122;2022-12-07T04:56:37;7.80;78.50
14873;DHT22;7528;48.576;19.122;2022-12-07T05:01:40;7.80;78.30
14873;DHT22;7528;48.576;19.122;2022-12-07T05:06:44;7.80;78.40
14873;DHT22;7528;48.576;19.122;2022-12-07T05:11:47;7.80;78.30
14873;DHT22;7528;48.576;19.122;2022-12-07T05:16:50;7.80;78.20
14873;DHT22;7528;48.576;19.122;2022-12-07T05:21:55;7.80;78.50
14873;DHT22;7528;48.576;19.122;2022-12-07T05:26:58;7.80;78.30
14873;DHT22;7528;48.576;19.122;2022-12-07T05:32:01;7.70;78.40
14873;DHT22;7528;48.576;19.122;2022-12-07T05:37:05;7.80;78.60
14873;DHT22;7528;48.576;19.122;2022-12-07T05:42:09;7.80;78.40
14873;DHT22;7528;48.576;19.122;2022-12-07T05:47:15;7.80;78.50
14873;DHT22;7528;48.576;19.122;2022-12-07T05:52:19;7.80;78.20
14873;DHT22;7528;48.576;19.122;2022-12-07T05:57:22;7.80;78.30
14873;DHT22;7528;48.576;19.122;2022-12-07T06:02:25;7.80;78.40
14873;DHT22;7528;48.576;19.122;2022-12-07T06:07:29;7.80;77.90
14873;DHT22;7528;48.576;19.122;2022-12-07T06:12:32;7.80;78.00
14873;DHT22;7528;48.576;19.122;2022-12-07T06:17:39;7.80;78.50
14873;DHT22;7528;48.576;19.122;2022-12-07T06:22:44;7.70;78.70
14873;DHT22;7528;48.576;19.122;2022-12-07T06:27:47;7.70;77.70
14873;DHT22;7528;48.576;19.122;2022-12-07T06:32:49;7.70;77.20
14873;DHT22;7528;48.576;19.122;2022-12-07T06:37:54;7.80;77.90
14873;DHT22;7528;48.576;19.122;2022-12-07T06:42:56;7.70;78.00
14873;DHT22;7528;48.576;19.122;2022-12-07T06:47:59;7.80;78.10
14873;DHT22;7528;48.576;19.122;2022-12-07T06:53:03;7.80;78.20
14873;DHT22;7528;48.576;19.122;2022-12-07T06:58:06;7.80;78.30
14873;DHT22;7528;48.576;19.122;2022-12-07T07:03:09;7.70;78.40
14873;DHT22;7528;48.576;19.122;2022-12-07T07:08:13;7.70;78.30
14873;DHT22;7528;48.576;19.122;2022-12-07T07:13:16;7.60;77.60
14873;DHT22;7528;48.576;19.122;2022-12-07T07:18:19;7.70;77.30
14873;DHT22;7528;48.576;19.122;2022-12-07T07:23:23;7.80;76.70
14873;DHT22;7528;48.576;19.122;2022-12-07T07:28:26;7.70;75.30
14873;DHT22;7528;48.576;19.122;2022-12-07T07:33:28;7.60;76.30
14873;DHT22;7528;48.576;19.122;2022-12-07T07:38:34;7.70;74.50
14873;DHT22;7528;48.576;19.122;2022-12-07T07:43:37;7.80;75.00
14873;DHT22;7528;48.576;19.122;2022-12-07T07:48:41;7.90;74.80
14873;DHT22;7528;48.576;19.122;2022-12-07T07:53:46;7.90;72.80
14873;DHT22;7528;48.576;19.122;2022-12-07T07:58:51;8.00;73.70
14873;DHT22;7528;48.576;19.122;2022-12-07T08:03:54;8.10;72.90
14873;DHT22;7528;48.576;19.122;2022-12-07T08:08:59;8.20;73.30
14873;DHT22;7528;48.576;19.122;2022-12-07T08:14:01;8.30;73.00
14873;DHT22;7528;48.576;19.122;2022-12-07T08:19:04;8.50;71.40
14873;DHT22;7528;48.576;19.122;2022-12-07T08:24:09;8.50;69.90
14873;DHT22;7528;48.576;19.122;2022-12-07T08:29:11;8.50;71.10
14873;DHT22;7528;48.576;19.122;2022-12-07T08:34:14;8.50;70.10
14873;DHT22;7528;48.576;19.122;2022-12-07T08:39:18;8.30;69.60
14873;DHT22;7528;48.576;19.122;2022-12-07T08:44:20;8.30;70.70
14873;DHT22;7528;48.576;19.122;2022-12-07T08:49:25;8.30;70.00
14873;DHT22;7528;48.576;19.122;2022-12-07T08:54:31;8.40;69.60
14873;DHT22;7528;48.576;19.122;2022-12-07T08:59:36;8.60;70.30
14873;DHT22;7528;48.576;19.122;2022-12-07T09:04:39;8.80;68.00
14873;DHT22;7528;48.576;19.122;2022-12-07T09:09:43;9.20;67.40
14873;DHT22;7528;48.576;19.122;2022-12-07T09:14:46;9.90;64.60
14873;DHT22;7528;48.576;19.122;2022-12-07T09:19:49;10.30;62.60
14873;DHT22;7528;48.576;19.122;2022-12-07T09:24:53;10.90;60.70
14873;DHT22;7528;48.576;19.122;2022-12-07T09:29:55;10.90;59.40
14873;DHT22;7528;48.576;19.122;2022-12-07T09:34:58;11.00;59.60
14873;DHT22;7528;48.576;19.122;2022-12-07T09:40:03;11.40;58.60
14873;DHT22;7528;48.576;19.122;2022-12-07T09:45:12;12.00;57.40
14873;DHT22;7528;48.576;19.122;2022-12-07T09:50:19;13.20;53.90
14873;DHT22;7528;48.576;19.122;2022-12-07T09:55:26;13.70;51.60
14873;DHT22;7528;48.576;19.122;2022-12-07T10:00:29;13.50;52.40
14873;DHT22;7528;48.576;19.122;2022-12-07T10:05:36;13.40;52.00
14873;DHT22;7528;48.576;19.122;2022-12-07T10:10:42;15.00;49.10
14873;DHT22;7528;48.576;19.122;2022-12-07T10:15:48;16.40;46.30
14873;DHT22;7528;48.576;19.122;2022-12-07T10:21:00;16.10;44.50
14873;DHT22;7528;48.576;19.122;2022-12-07T10:26:26;15.70;46.20
14873;DHT22;7528;48.576;19.122;2022-12-07T10:31:30;14.60;46.40
14873;DHT22;7528;48.576;19.122;2022-12-07T10:36:36;13.70;47.90
14873;DHT22;7528;48.576;19.122;2022-12-07T10:41:53;13.00;49.60
14873;DHT22;7528;48.576;19.122;2022-12-07T10:47:24;12.40;50.70
14873;DHT22;7528;48.576;19.122;2022-12-07T10:52:39;12.00;52.30
14873;DHT22;7528;48.576;19.122;2022-12-07T10:57:58;11.50;53.80
14873;DHT22;7528;48.576;19.122;2022-12-07T11:03:21;10.90;54.60
14873;DHT22;7528;48.576;19.122;2022-12-07T11:08:39;10.50;55.20
14873;DHT22;7528;48.576;19.122;2022-12-07T11:13:55;10.50;55.90
14873;DHT22;7528;48.576;19.122;2022-12-07T11:19:29;10.50;56.40
14873;DHT22;7528;48.576;19.122;2022-12-07T11:24:42;10.60;56.50
14873;DHT22;7528;48.576;19.122;2022-12-07T11:29:57;10.60;55.60
14873;DHT22;7528;48.576;19.122;2022-12-07T11:35:07;10.40;55.80
14873;DHT22;7528;48.576;19.122;2022-12-07T11:40:19;10.30;56.30
14873;DHT22;7528;48.576;19.122;2022-12-07T11:45:27;10.30;56.60
14873;DHT22;7528;48.576;19.122;2022-12-07T11:50:34;10.30;56.90
14873;DHT22;7528;48.576;19.122;2022-12-07T11:55:42;10.10;57.10
14873;DHT22;7528;48.576;19.122;2022-12-07T12:00:47;10.00;58.00
14873;DHT22;7528;48.576;19.122;2022-12-07T12:05:50;10.00;58.60
14873;DHT22;7528;48.576;19.122;2022-12-07T12:10:58;9.90;58.60
14873;DHT22;7528;48.576;19.122;2022-12-07T12:16:17;9.90;59.60
14873;DHT22;7528;48.576;19.122;2022-12-07T12:21:27;10.00;59.10
14873;DHT22;7528;48.576;19.122;2022-12-07T12:26:32;10.10;57.40
14873;DHT22;7528;48.576;19.122;2022-12-07T12:31:39;10.10;57.80
14873;DHT22;7528;48.576;19.122;2022-12-07T12:36:45;10.00;58.50
14873;DHT22;7528;48.576;19.122;2022-12-07T12:41:54;10.10;58.50
14873;DHT22;7528;48.576;19.122;2022-12-07T12:47:40;10.00;56.90
14873;DHT22;7528;48.576;19.122;2022-12-07T12:52:51;10.00;57.60
14873;DHT22;7528;48.576;19.122;2022-12-07T12:58:30;9.80;57.60
14873;DHT22;7528;48.576;19.122;2022-12-07T13:03:35;9.60;57.90
14873;DHT22;7528;48.576;19.122;2022-12-07T13:08:41;9.50;57.30
14873;DHT22;7528;48.576;19.122;2022-12-07T13:13:44;9.40;57.50
14873;DHT22;7528;48.576;19.122;2022-12-07T13:18:48;9.40;58.20
14873;DHT22;7528;48.576;19.122;2022-12-07T13:23:55;9.30;57.00
14873;DHT22;7528;48.576;19.122;2022-12-07T13:29:10;9.20;56.70
14873;DHT22;7528;48.576;19.122;2022-12-07T13:34:32;9.10;56.80
14873;DHT22;7528;48.576;19.122;2022-12-07T13:39:35;9.20;57.10
14873;DHT22;7528;48.576;19.122;2022-12-07T13:44:46;9.10;57.30
14873;DHT22;7528;48.576;19.122;2022-12-07T13:49:52;9.00;57.30
14873;DHT22;7528;48.576;19.122;2022-12-07T13:54:57;8.90;58.00
14873;DHT22;7528;48.576;19.122;2022-12-07T14:00:00;8.90;58.60
14873;DHT22;7528;48.576;19.122;2022-12-07T14:05:09;8.90;58.80
14873;DHT22;7528;48.576;19.122;2022-12-07T14:10:23;8.90;57.40
14873;DHT22;7528;48.576;19.122;2022-12-07T14:15:29;8.80;57.20
14873;DHT22;7528;48.576;19.122;2022-12-07T14:20:35;8.70;58.00
14873;DHT22;7528;48.576;19.122;2022-12-07T14:25:45;8.70;58.20
14873;DHT22;7528;48.576;19.122;2022-12-07T14:30:48;8.60;58.50
14873;DHT22;7528;48.576;19.122;2022-12-07T14:35:52;8.60;59.80
14873;DHT22;7528;48.576;19.122;2022-12-07T14:40:56;8.70;59.60
14873;DHT22;7528;48.576;19.122;2022-12-07T14:46:20;8.80;59.60
14873;DHT22;7528;48.576;19.122;2022-12-07T14:51:24;8.80;58.90
14873;DHT22;7528;48.576;19.122;2022-12-07T14:56:26;8.80;59.20
14873;DHT22;7528;48.576;19.122;2022-12-07T15:01:29;8.80;59.90
14873;DHT22;7528;48.576;19.122;2022-12-07T15:06:34;8.70;59.50
14873;DHT22;7528;48.576;19.122;2022-12-07T15:11:36;8.70;60.90
14873;DHT22;7528;48.576;19.122;2022-12-07T15:16:40;8.80;62.00
14873;DHT22;7528;48.576;19.122;2022-12-07T15:21:45;8.70;62.90
14873;DHT22;7528;48.576;19.122;2022-12-07T15:26:47;8.60;62.10
14873;DHT22;7528;48.576;19.122;2022-12-07T15:31:50;8.60;63.30
14873;DHT22;7528;48.576;19.122;2022-12-07T15:36:55;8.60;63.60
14873;DHT22;7528;48.576;19.122;2022-12-07T15:41:57;8.50;63.00
14873;DHT22;7528;48.576;19.122;2022-12-07T15:47:00;8.40;62.80
14873;DHT22;7528;48.576;19.122;2022-12-07T15:52:04;8.50;62.70
14873;DHT22;7528;48.576;19.122;2022-12-07T15:57:07;8.40;62.70
14873;DHT22;7528;48.576;19.122;2022-12-07T16:02:09;8.40;62.90
14873;DHT22;7528;48.576;19.122;2022-12-07T16:07:13;8.30;62.30
14873;DHT22;7528;48.576;19.122;2022-12-07T16:12:16;8.40;63.30
14873;DHT22;7528;48.576;19.122;2022-12-07T16:17:19;8.40;63.00
14873;DHT22;7528;48.576;19.122;2022-12-07T16:22:23;8.40;63.90
14873;DHT22;7528;48.576;19.122;2022-12-07T16:27:25;8.30;64.00
14873;DHT22;7528;48.576;19.122;2022-12-07T16:32:28;8.30;64.00
14873;DHT22;7528;48.576;19.122;2022-12-07T16:37:31;8.30;64.10
14873;DHT22;7528;48.576;19.122;2022-12-07T16:42:35;8.30;64.30
14873;DHT22;7528;48.576;19.122;2022-12-07T16:47:37;8.30;63.20
14873;DHT22;7528;48.576;19.122;2022-12-07T16:52:41;8.30;64.60
14873;DHT22;7528;48.576;19.122;2022-12-07T16:57:44;8.20;64.20
14873;DHT22;7528;48.576;19.122;2022-12-07T17:02:46;8.20;62.80
14873;DHT22;7528;48.576;19.122;2022-12-07T17:07:51;8.30;62.90
14873;DHT22;7528;48.576;19.122;2022-12-07T17:12:53;8.30;58.80
14873;DHT22;7528;48.576;19.122;2022-12-07T17:17:57;8.30;60.30
14873;DHT22;7528;48.576;19.122;2022-12-07T17:23:01;8.30;60.60
14873;DHT22;7528;48.576;19.122;2022-12-07T17:28:04;8.30;61.50
14873;DHT22;7528;48.576;19.122;2022-12-07T17:33:07;8.40;62.50
14873;DHT22;7528;48.576;19.122;2022-12-07T17:38:11;8.30;62.50
14873;DHT22;7528;48.576;19.122;2022-12-07T17:43:13;8.30;63.70
14873;DHT22;7528;48.576;19.122;2022-12-07T17:48:16;8.30;64.20
14873;DHT22;7528;48.576;19.122;2022-12-07T17:53:20;8.30;64.20
14873;DHT22;7528;48.576;19.122;2022-12-07T17:58:23;8.30;65.10
14873;DHT22;7528;48.576;19.122;2022-12-07T18:03:27;8.30;64.80
14873;DHT22;7528;48.576;19.122;2022-12-07T18:08:34;8.20;64.80
14873;DHT22;7528;48.576;19.122;2022-12-07T18:13:38;8.20;64.80
14873;DHT22;7528;48.576;19.122;2022-12-07T18:18:41;8.20;65.50
14873;DHT22;7528;48.576;19.122;2022-12-07T18:23:47;8.10;65.60
14873;DHT22;7528;48.576;19.122;2022-12-07T18:28:50;8.10;65.80
14873;DHT22;7528;48.576;19.122;2022-12-07T18:33:53;8.10;66.40
14873;DHT22;7528;48.576;19.122;2022-12-07T18:38:57;8.10;66.40
14873;DHT22;7528;48.576;19.122;2022-12-07T18:44:01;8.10;65.60
14873;DHT22;7528;48.576;19.122;2022-12-07T18:49:05;8.10;65.00
14873;DHT22;7528;48.576;19.122;2022-12-07T18:54:09;8.00;64.90
14873;DHT22;7528;48.576;19.122;2022-12-07T18:59:13;8.00;65.50
14873;DHT22;7528;48.576;19.122;2022-12-07T19:04:33;8.00;65.90
14873;DHT22;7528;48.576;19.122;2022-12-07T19:09:37;8.10;66.00
14873;DHT22;7528;48.576;19.122;2022-12-07T19:14:39;8.00;65.00
14873;DHT22;7528;48.576;19.122;2022-12-07T19:19:44;8.00;65.00
14873;DHT22;7528;48.576;19.122;2022-12-07T19:24:50;8.00;66.10
14873;DHT22;7528;48.576;19.122;2022-12-07T19:29:53;7.90;66.10
14873;DHT22;7528;48.576;19.122;2022-12-07T19:34:56;7.80;66.30
14873;DHT22;7528;48.576;19.122;2022-12-07T19:40:00;7.80;66.50
14873;DHT22;7528;48.576;19.122;2022-12-07T19:45:03;7.80;65.10
14873;DHT22;7528;48.576;19.122;2022-12-07T19:50:08;7.80;65.40
14873;DHT22;7528;48.576;19.122;2022-12-07T19:55:12;7.70;65.10
14873;DHT22;7528;48.576;19.122;2022-12-07T20:00:15;7.70;63.10
14873;DHT22;7528;48.576;19.122;2022-12-07T20:05:18;7.60;63.80
14873;DHT22;7528;48.576;19.122;2022-12-07T20:10:23;7.60;64.30
14873;DHT22;7528;48.576;19.122;2022-12-07T20:15:26;7.50;65.00
14873;DHT22;7528;48.576;19.122;2022-12-07T20:20:28;7.40;65.90
14873;DHT22;7528;48.576;19.122;2022-12-07T20:25:36;7.40;66.10
14873;DHT22;7528;48.576;19.122;2022-12-07T20:30:45;7.40;66.60
14873;DHT22;7528;48.576;19.122;2022-12-07T20:35:48;7.30;66.80
14873;DHT22;7528;48.576;19.122;2022-12-07T20:40:52;7.30;67.90
14873;DHT22;7528;48.576;19.122;2022-12-07T20:45:55;7.20;67.60
14873;DHT22;7528;48.576;19.122;2022-12-07T20:51:04;7.20;68.30
14873;DHT22;7528;48.576;19.122;2022-12-07T20:56:16;7.30;68.40
14873;DHT22;7528;48.576;19.122;2022-12-07T21:01:19;7.30;68.50
14873;DHT22;7528;48.576;19.122;2022-12-07T21:06:22;7.30;68.60
14873;DHT22;7528;48.576;19.122;2022-12-07T21:11:28;7.20;69.30
14873;DHT22;7528;48.576;19.122;2022-12-07T21:16:31;7.10;69.60
14873;DHT22;7528;48.576;19.122;2022-12-07T21:21:34;7.20;69.30
14873;DHT22;7528;48.576;19.122;2022-12-07T21:26:39;7.10;69.90
14873;DHT22;7528;48.576;19.122;2022-12-07T21:31:41;7.10;70.10
14873;DHT22;7528;48.576;19.122;2022-12-07T21:36:44;7.10;70.20
14873;DHT22;7528;48.576;19.122;2022-12-07T21:41:48;7.10;70.00
14873;DHT22;7528;48.576;19.122;2022-12-07T21:46:50;7.00;70.80
14873;DHT22;7528;48.576;19.122;2022-12-07T21:51:54;7.00;70.80
14873;DHT22;7528;48.576;19.122;2022-12-07T21:56:57;7.00;71.10
14873;DHT22;7528;48.576;19.122;2022-12-07T22:02:00;6.90;70.70
14873;DHT22;7528;48.576;19.122;2022-12-07T22:07:02;7.00;70.70
14873;DHT22;7528;48.576;19.122;2022-12-07T22:12:06;7.00;70.40
14873;DHT22;7528;48.576;19.122;2022-12-07T22:17:09;7.00;70.90
14873;DHT22;7528;48.576;19.122;2022-12-07T22:22:12;7.00;71.10
14873;DHT22;7528;48.576;19.122;2022-12-07T22:27:17;7.00;71.20
14873;DHT22;7528;48.576;19.122;2022-12-07T22:32:20;6.90;71.10
14873;DHT22;7528;48.576;19.122;2022-12-07T22:37:22;7.00;71.20
14873;DHT22;7528;48.576;19.122;2022-12-07T22:42:27;6.90;71.20
14873;DHT22;7528;48.576;19.122;2022-12-07T22:47:29;6.90;71.30
14873;DHT22;7528;48.576;19.122;2022-12-07T22:52:32;6.90;71.20
14873;DHT22;7528;48.576;19.122;2022-12-07T22:57:36;6.90;71.10
14873;DHT22;7528;48.576;19.122;2022-12-07T23:02:38;6.80;71.40
14873;DHT22;7528;48.576;19.122;2022-12-07T23:07:41;6.80;71.40
14873;DHT22;7528;48.576;19.122;2022-12-07T23:12:46;6.80;71.10
14873;DHT22;7528;48.576;19.122;2022-12-07T23:18:05;6.70;71.10
14873;DHT22;7528;48.576;19.122;2022-12-07T23:23:08;6.70;71.20
14873;DHT22;7528;48.576;19.122;2022-12-07T23:28:12;6.70;70.90
14873;DHT22;7528;48.576;19.122;2022-12-07T23:33:15;6.70;71.10
14873;DHT22;7528;48.576;19.122;2022-12-07T23:38:17;6.80;71.20
14873;DHT22;7528;48.576;19.122;2022-12-07T23:43:21;6.70;71.00
14873;DHT22;7528;48.576;19.122;2022-12-07T23:48:24;6.70;72.20
14873;DHT22;7528;48.576;19.122;2022-12-07T23:53:27;6.70;71.40
14873;DHT22;7528;48.576;19.122;2022-12-07T23:58:32;6.60;71.80
